Terminal Aerodrome Forecast
Issued by NWS Cleveland, OH

Home | Current Version | Previous Version | Text Only | Print | Product List | Glossary Off
Versions: 1 2 3 4 5 6 7 8 9 10 11 12 13 14 15 16 17 18 19

000
FTUS41 KCLE 221100
TAFERI
TAF
KERI 221130Z 2212/2312 15008KT P6SM SKC
     FM221400 15009KT P6SM SCT045 BKN120
     FM221800 15011KT P6SM BKN045
     FM222200 15009KT P6SM OVC035
     FM231000 14012KT P6SM -RA OVC025
     FM231100 14012G24KT P6SM -RA OVC015=

USA.gov is the U.S. government's official web portal to all federal, state and local government web resources and services.